Time;durP1;ratioP1;P1;durP2;ratioP2;P2;SDS_P1;SDS_P2;PMS_P1;PMS_P2;Temp;Humidity;BMP_temperature;BMP_pressure;BME280_temperature;BME280_humidity;BME280_pressure;Samples;Min_cycle;Max_cycle;Signal;HPM_P1;HPM_P2
2021/01/06 00:36:28;;;;;;;2.50;2.30;;;17.90;50.40;;;;;;6248785;22;706847;-54
2021/01/06 00:38:54;;;;;;;2.63;2.43;;;17.90;49.90;;;;;;6297182;22;20477;-55
2021/01/06 00:41:28;;;;;;;2.77;2.57;;;17.90;49.90;;;;;;6294151;22;20176;-55
2021/01/06 00:43:56;;;;;;;2.60;2.40;;;17.90;50.00;;;;;;6297365;22;20272;-55
2021/01/06 00:46:28;;;;;;;2.40;2.20;;;17.90;50.00;;;;;;6294338;22;20342;-55
2021/01/06 00:48:54;;;;;;;2.60;2.40;;;17.80;50.00;;;;;;6297632;22;20216;-55
2021/01/06 00:51:20;;;;;;;2.40;2.20;;;17.90;50.10;;;;;;6293966;22;20620;-55
2021/01/06 00:53:47;;;;;;;2.53;2.33;;;17.80;50.00;;;;;;6297021;22;20169;-55
2021/01/06 00:56:13;;;;;;;2.63;2.43;;;17.80;50.10;;;;;;6293786;22;20169;-56
2021/01/06 00:58:39;;;;;;;2.53;2.30;;;17.80;50.10;;;;;;6297476;22;20193;-55
2021/01/06 01:01:05;;;;;;;2.73;2.53;;;17.80;50.10;;;;;;6293945;22;20446;-56
2021/01/06 01:03:31;;;;;;;2.20;2.00;;;17.80;50.20;;;;;;6295822;22;20188;-55
2021/01/06 01:05:58;;;;;;;2.97;2.77;;;17.70;50.20;;;;;;6293646;22;20169;-56
2021/01/06 01:08:24;;;;;;;2.30;2.10;;;17.70;50.20;;;;;;6297619;22;20172;-56
2021/01/06 01:10:52;;;;;;;2.07;1.97;;;17.70;50.30;;;;;;6293305;22;20197;-56
2021/01/06 01:13:25;;;;;;;2.30;2.10;;;17.70;50.30;;;;;;6297667;22;20236;-55
2021/01/06 01:15:54;;;;;;;2.70;2.50;;;17.60;50.30;;;;;;6295968;22;20259;-55
2021/01/06 01:18:24;;;;;;;2.33;2.13;;;17.70;50.30;;;;;;6296222;22;20188;-56
2021/01/06 01:20:52;;;;;;;2.80;2.33;;;17.70;50.30;;;;;;6269586;22;20243;-56
2021/01/06 01:23:20;;;;;;;2.43;1.93;;;17.60;50.30;;;;;;6293848;22;20221;-55
2021/01/06 01:25:47;;;;;;;2.23;2.03;;;17.60;50.30;;;;;;6297359;22;20171;-55
2021/01/06 01:28:15;;;;;;;2.20;2.00;;;17.60;50.30;;;;;;6293753;22;20176;-55
2021/01/06 01:30:41;;;;;;;2.50;2.30;;;17.60;50.30;;;;;;6297172;22;20169;-55
2021/01/06 01:33:08;;;;;;;2.60;2.40;;;17.60;50.40;;;;;;6293656;22;20173;-56
2021/01/06 01:35:34;;;;;;;2.13;1.93;;;17.60;50.40;;;;;;6297198;22;20203;-55
2021/01/06 01:38:03;;;;;;;2.33;2.13;;;17.60;50.50;;;;;;6293794;22;20153;-56
2021/01/06 01:40:38;;;;;;;2.43;2.23;;;17.50;50.50;;;;;;6296813;22;20182;-55
2021/01/06 01:43:12;;;;;;;2.50;2.00;;;17.50;50.50;;;;;;6292917;22;20180;-55
2021/01/06 01:45:44;;;;;;;2.20;2.00;;;17.50;50.50;;;;;;6296379;22;20167;-55
2021/01/06 01:48:30;;;;;;;2.20;2.00;;;17.50;50.60;;;;;;6292215;22;20611;-55
2021/01/06 01:51:03;;;;;;;2.13;2.03;;;17.60;50.50;;;;;;6295962;22;20508;-55
2021/01/06 01:53:35;;;;;;;2.50;2.30;;;17.50;50.60;;;;;;6291816;22;20790;-55
2021/01/06 01:56:03;;;;;;;2.40;2.20;;;17.50;50.60;;;;;;6296141;22;20157;-55
2021/01/06 01:58:33;;;;;;;3.50;2.43;;;17.50;50.60;;;;;;6292152;22;20172;-55
2021/01/06 02:01:02;;;;;;;3.10;2.80;;;17.50;50.70;;;;;;6296660;22;20259;-55
2021/01/06 02:03:40;;;;;;;2.20;2.00;;;17.50;50.70;;;;;;6291680;22;20211;-55
2021/01/06 02:06:15;;;;;;;2.30;2.07;;;17.40;50.60;;;;;;6296240;22;20168;-55
2021/01/06 02:08:53;;;;;;;2.37;2.17;;;17.40;50.70;;;;;;6292029;22;20613;-55
2021/01/06 02:11:31;;;;;;;2.50;2.30;;;17.40;50.70;;;;;;6296830;22;20175;-55
2021/01/06 02:14:08;;;;;;;2.23;2.03;;;17.40;50.70;;;;;;6293368;22;20160;-55
2021/01/06 02:17:01;;;;;;;2.33;2.13;;;17.40;50.70;;;;;;6297350;22;20171;-55
2021/01/06 02:19:32;;;;;;;2.60;2.40;;;17.40;50.80;;;;;;6292081;22;20175;-56
2021/01/06 02:21:58;;;;;;;2.50;2.30;;;17.40;50.80;;;;;;6296413;22;20203;-55
2021/01/06 02:24:25;;;;;;;2.60;2.33;;;17.40;50.70;;;;;;6291912;22;20172;-55
2021/01/06 02:26:52;;;;;;;2.30;2.10;;;17.30;50.80;;;;;;6269397;22;20149;-55
2021/01/06 02:29:19;;;;;;;2.30;2.10;;;17.40;50.80;;;;;;6292930;22;20168;-55
2021/01/06 02:31:45;;;;;;;2.70;2.50;;;17.40;50.80;;;;;;6296510;22;20180;-55
2021/01/06 02:34:12;;;;;;;2.40;2.20;;;17.30;50.90;;;;;;6293249;22;20168;-55
2021/01/06 02:36:38;;;;;;;2.30;2.10;;;17.30;50.80;;;;;;6295898;22;20199;-55
2021/01/06 02:39:07;;;;;;;3.93;2.27;;;17.30;50.80;;;;;;6296593;22;20186;-55
2021/01/06 02:41:33;;;;;;;2.63;2.40;;;17.30;50.90;;;;;;6292593;22;20176;-55
2021/01/06 02:44:00;;;;;;;2.50;2.30;;;17.30;50.90;;;;;;6296945;22;20172;-55
2021/01/06 02:46:26;;;;;;;2.53;2.33;;;17.30;50.90;;;;;;6291564;22;20263;-55
2021/01/06 02:48:52;;;;;;;2.70;2.50;;;17.30;51.50;;;;;;6298004;22;20180;-55
2021/01/06 02:51:39;;;;;;;2.53;2.33;;;17.30;50.90;;;;;;6266513;22;20620;-54
2021/01/06 02:54:10;;;;;;;3.30;3.00;;;17.30;51.00;;;;;;6298645;22;20670;-55
2021/01/06 02:56:39;;;;;;;3.00;2.80;;;17.20;51.00;;;;;;6294314;22;20268;-55
2021/01/06 02:59:08;;;;;;;3.20;2.90;;;17.30;51.00;;;;;;6298448;22;20176;-55
2021/01/06 03:01:38;;;;;;;2.83;2.53;;;17.30;51.00;;;;;;6294464;22;20176;-54
2021/01/06 03:04:07;;;;;;;2.80;2.60;;;17.20;51.00;;;;;;6296806;22;20165;-55
2021/01/06 03:06:39;;;;;;;2.70;2.50;;;17.20;51.10;;;;;;6294408;22;20165;-54
2021/01/06 03:09:20;;;;;;;3.73;2.57;;;17.20;51.00;;;;;;6298988;22;20704;-54
2021/01/06 03:11:46;;;;;;;2.70;2.50;;;17.20;51.00;;;;;;6294532;22;20627;-55
2021/01/06 03:14:13;;;;;;;2.87;2.67;;;17.20;51.00;;;;;;6298567;22;20263;-55
2021/01/06 03:16:39;;;;;;;3.03;2.83;;;17.20;51.10;;;;;;6293973;22;20253;-55
2021/01/06 03:19:09;;;;;;;2.93;2.53;;;17.20;51.00;;;;;;6298637;22;20179;-55
2021/01/06 03:21:38;;;;;;;2.80;2.50;;;17.20;51.10;;;;;;6293591;22;20190;-55
2021/01/06 03:24:07;;;;;;;2.57;2.37;;;17.10;51.10;;;;;;6298540;22;20168;-55
2021/01/06 03:26:35;;;;;;;2.83;2.53;;;17.10;51.10;;;;;;6293852;22;20168;-55
2021/01/06 03:29:02;;;;;;;2.97;2.70;;;17.20;51.20;;;;;;6298655;22;20259;-55
2021/01/06 03:31:57;;;;;;;2.90;2.70;;;17.10;51.20;;;;;;6297651;22;20176;-55
2021/01/06 03:34:42;;;;;;;2.53;2.33;;;17.10;51.20;;;;;;6297854;22;20176;-55
2021/01/06 03:37:19;;;;;;;2.60;2.40;;;17.10;51.20;;;;;;6293928;22;20519;-55
2021/01/06 03:39:59;;;;;;;2.90;2.40;;;17.10;51.20;;;;;;6298693;22;20518;-55
2021/01/06 03:42:27;;;;;;;2.87;2.60;;;17.10;51.20;;;;;;6293231;22;20192;-55
2021/01/06 03:44:54;;;;;;;2.90;2.70;;;17.10;51.30;;;;;;6298408;22;20177;-55
2021/01/06 03:47:27;;;;;;;2.63;2.40;;;17.10;51.20;;;;;;6294233;22;20165;-55
2021/01/06 03:50:02;;;;;;;2.47;2.27;;;17.10;51.20;;;;;;6298808;22;20164;-55
2021/01/06 03:53:03;;;;;;;2.50;2.30;;;17.10;51.30;;;;;;6294656;22;20178;-54
2021/01/06 03:55:41;;;;;;;2.63;2.43;;;17.10;51.30;;;;;;6298218;22;20531;-55
2021/01/06 03:58:32;;;;;;;2.57;2.37;;;17.10;51.30;;;;;;6293949;22;20153;-55
2021/01/06 04:01:20;;;;;;;2.60;2.40;;;17.10;51.30;;;;;;6297100;22;20160;-55
2021/01/06 04:04:19;;;;;;;2.50;2.30;;;17.00;51.20;;;;;;6294235;22;20177;-55
2021/01/06 04:06:48;;;;;;;2.47;2.20;;;17.00;51.20;;;;;;6296875;22;20620;-54
2021/01/06 04:09:33;;;;;;;2.40;2.20;;;17.00;51.30;;;;;;6293466;22;20164;-54
2021/01/06 04:12:09;;;;;;;2.30;2.10;;;17.00;51.20;;;;;;6297494;22;20180;-55
2021/01/06 04:14:37;;;;;;;2.77;2.50;;;17.00;51.30;;;;;;6294369;22;20176;-55
2021/01/06 04:17:12;;;;;;;2.50;2.30;;;17.00;51.30;;;;;;6297764;22;20630;-55
2021/01/06 04:19:46;;;;;;;2.40;2.20;;;17.00;51.30;;;;;;6294743;22;20600;-55
2021/01/06 04:22:13;;;;;;;3.93;2.27;;;17.00;51.40;;;;;;6297869;22;20484;-55
2021/01/06 04:24:39;;;;;;;2.90;2.27;;;17.00;51.30;;;;;;6294286;22;20173;-55
2021/01/06 04:27:06;;;;;;;2.93;2.50;;;17.00;51.40;;;;;;6297566;22;20434;-55
2021/01/06 04:29:32;;;;;;;2.70;2.33;;;17.00;51.40;;;;;;6294059;22;20168;-55
2021/01/06 04:32:03;;;;;;;2.70;2.50;;;17.00;51.40;;;;;;6297787;22;20456;-55
2021/01/06 04:34:29;;;;;;;2.23;2.03;;;17.00;51.40;;;;;;6294144;22;20172;-55
2021/01/06 04:36:55;;;;;;;2.60;2.40;;;17.00;51.40;;;;;;6296912;22;20208;-54
2021/01/06 04:39:22;;;;;;;2.50;2.10;;;17.00;51.50;;;;;;6295026;22;20486;-54
2021/01/06 04:42:04;;;;;;;2.43;2.23;;;17.00;51.40;;;;;;6296455;22;20169;-55
2021/01/06 04:44:36;;;;;;;2.30;2.10;;;17.00;51.50;;;;;;6298363;22;20159;-55
2021/01/06 04:47:37;;;;;;;2.53;2.27;;;16.90;51.60;;;;;;6296454;22;20243;-55
2021/01/06 04:50:25;;;;;;;2.27;2.07;;;16.90;51.50;;;;;;6294558;22;20164;-55
2021/01/06 04:53:22;;;;;;;3.13;2.60;;;16.90;51.40;;;;;;6297494;22;20172;-55
2021/01/06 04:56:13;;;;;;;2.60;2.30;;;16.90;51.40;;;;;;6294519;22;20167;-54
2021/01/06 04:59:07;;;;;;;2.70;2.50;;;16.90;51.40;;;;;;6298307;22;20172;-55
2021/01/06 05:01:44;;;;;;;2.40;2.20;;;16.90;51.40;;;;;;6293970;22;20157;-55
2021/01/06 05:04:51;;;;;;;2.57;2.30;;;16.90;51.50;;;;;;6296703;22;20505;-55
2021/01/06 05:08:04;;;;;;;2.87;2.37;;;16.90;51.50;;;;;;6290956;22;20310;-55
2021/01/06 05:10:37;;;;;;;2.53;2.33;;;16.90;51.60;;;;;;6297825;22;20172;-55
2021/01/06 05:13:24;;;;;;;2.30;2.03;;;16.90;51.60;;;;;;6295080;22;20814;-55
2021/01/06 05:15:59;;;;;;;3.60;2.50;;;16.80;51.60;;;;;;6296736;22;20156;-54
2021/01/06 05:18:26;;;;;;;2.30;2.10;;;16.80;51.60;;;;;;6296674;22;20172;-55
2021/01/06 05:20:54;;;;;;;2.30;2.10;;;16.80;51.60;;;;;;6298199;22;20171;-55
2021/01/06 05:23:28;;;;;;;2.60;2.40;;;16.90;51.70;;;;;;6292903;22;20188;-55
2021/01/06 05:25:57;;;;;;;2.80;2.50;;;16.80;51.60;;;;;;6297466;22;20168;-55
2021/01/06 05:28:25;;;;;;;2.83;2.30;;;16.90;51.60;;;;;;6293533;22;20182;-55
2021/01/06 05:30:54;;;;;;;3.27;2.53;;;16.80;51.60;;;;;;6297810;22;20164;-55
2021/01/06 05:33:40;;;;;;;2.60;2.37;;;16.90;51.70;;;;;;6293049;22;20176;-55
2021/01/06 05:36:15;;;;;;;2.97;2.47;;;16.80;51.60;;;;;;6297315;22;20258;-55
2021/01/06 05:38:41;;;;;;;2.10;1.90;;;16.80;51.60;;;;;;6293177;22;20167;-54
2021/01/06 05:41:07;;;;;;;2.60;2.40;;;16.80;51.60;;;;;;6297742;22;20172;-54
2021/01/06 05:43:40;;;;;;;2.30;2.10;;;16.80;51.60;;;;;;6293471;22;20180;-55
2021/01/06 05:46:14;;;;;;;8.30;2.30;;;16.80;51.70;;;;;;6298064;22;20179;-55
2021/01/06 05:48:47;;;;;;;2.17;2.00;;;16.80;51.70;;;;;;6293693;22;20168;-55
2021/01/06 05:51:25;;;;;;;2.63;2.23;;;16.80;51.70;;;;;;6297125;22;20748;-55
2021/01/06 05:53:57;;;;;;;2.33;2.13;;;16.80;51.70;;;;;;6293477;22;20163;-55
2021/01/06 05:56:53;;;;;;;2.23;2.03;;;16.80;51.70;;;;;;6297596;22;20247;-55
2021/01/06 05:59:39;;;;;;;2.77;2.50;;;16.80;51.70;;;;;;6293496;22;20161;-54
2021/01/06 06:02:08;;;;;;;2.33;2.13;;;16.80;51.80;;;;;;6297347;22;20199;-55
2021/01/06 06:04:41;;;;;;;2.60;2.40;;;16.80;51.80;;;;;;6293541;22;20601;-55
2021/01/06 06:07:13;;;;;;;2.27;1.90;;;16.80;51.80;;;;;;6296631;22;20476;-56
2021/01/06 06:10:10;;;;;;;3.07;2.53;;;16.80;51.80;;;;;;6292773;22;20172;-55
2021/01/06 06:12:36;;;;;;;2.57;2.10;;;16.80;52.10;;;;;;6293592;22;20190;-55
2021/01/06 06:15:15;;;;;;;4.17;2.40;;;16.80;51.90;;;;;;6259410;22;20180;-55
2021/01/06 06:18:02;;;;;;;2.40;2.20;;;16.80;51.90;;;;;;6292745;22;20156;-55
2021/01/06 06:21:00;;;;;;;2.43;2.10;;;16.80;52.00;;;;;;6286855;22;20274;-55
2021/01/06 06:23:31;;;;;;;2.43;2.23;;;16.80;52.00;;;;;;6292781;22;20218;-57
2021/01/06 06:26:35;;;;;;;3.13;2.30;;;16.80;52.00;;;;;;6291971;22;20172;-55
2021/01/06 06:29:13;;;;;;;6.23;2.87;;;16.80;52.10;;;;;;6289363;22;20175;-55
2021/01/06 06:31:47;;;;;;;8.93;3.10;;;16.80;52.20;;;;;;6294491;22;20172;-54
2021/01/06 06:34:14;;;;;;;6.43;2.57;;;16.80;52.20;;;;;;6288706;22;20658;-55
2021/01/06 06:36:47;;;;;;;6.00;3.00;;;16.80;52.20;;;;;;6291080;22;20199;-55
2021/01/06 06:39:30;;;;;;;6.73;2.73;;;16.80;52.20;;;;;;6296435;22;20169;-55
2021/01/06 06:42:26;;;;;;;6.83;3.03;;;16.80;52.20;;;;;;6289266;22;20181;-55
2021/01/06 06:45:23;;;;;;;4.93;3.07;;;16.80;52.20;;;;;;6290055;22;20187;-55
2021/01/06 06:47:49;;;;;;;9.07;3.37;;;16.80;52.10;;;;;;6293834;22;20565;-55
2021/01/06 06:51:00;;;;;;;9.40;3.40;;;16.80;52.30;;;;;;6289652;22;20455;-55
2021/01/06 06:53:38;;;;;;;8.90;2.73;;;16.80;52.40;;;;;;6289899;22;20180;-55
2021/01/06 06:56:36;;;;;;;6.83;2.70;;;16.80;52.40;;;;;;6289236;22;20180;-54
2021/01/06 06:59:30;;;;;;;3.83;2.37;;;16.80;52.30;;;;;;6289525;22;20172;-55
2021/01/06 07:02:02;;;;;;;5.77;2.70;;;16.80;52.30;;;;;;6289495;22;20200;-55
2021/01/06 07:04:31;;;;;;;9.50;2.80;;;16.80;52.30;;;;;;6291907;22;20173;-54
2021/01/06 07:07:00;;;;;;;7.30;2.70;;;16.70;52.30;;;;;;6292565;22;20172;-54
2021/01/06 07:09:33;;;;;;;6.57;2.60;;;16.80;52.30;;;;;;6294959;22;20272;-54
2021/01/06 07:12:10;;;;;;;10.07;2.77;;;16.80;52.30;;;;;;6287939;22;20176;-54
2021/01/06 07:14:53;;;;;;;3.00;2.10;;;16.80;52.70;;;;;;6292094;22;20240;-54
2021/01/06 07:17:39;;;;;;;5.77;2.80;;;16.80;52.60;;;;;;6279501;22;20646;-54
2021/01/06 07:20:12;;;;;;;3.33;2.37;;;16.80;52.70;;;;;;6289379;22;20153;-54
2021/01/06 07:22:57;;;;;;;6.10;2.50;;;16.80;52.70;;;;;;6282312;22;20218;-54
2021/01/06 07:25:31;;;;;;;5.30;2.43;;;16.80;52.70;;;;;;6282894;22;20157;-54
2021/01/06 07:28:01;;;;;;;4.67;2.30;;;16.80;52.60;;;;;;6283567;22;20668;-54
2021/01/06 07:30:41;;;;;;;6.67;2.40;;;16.80;52.60;;;;;;6291604;22;20659;-54
2021/01/06 07:33:43;;;;;;;4.63;2.50;;;16.70;52.50;;;;;;6289167;22;20621;-54
2021/01/06 07:36:20;;;;;;;4.57;2.40;;;16.70;52.50;;;;;;6301156;22;20527;-55
2021/01/06 07:38:48;;;;;;;5.27;2.87;;;16.70;52.40;;;;;;6285894;22;20168;-54
2021/01/06 07:41:16;;;;;;;4.77;2.43;;;16.70;52.40;;;;;;6298323;22;20192;-57
2021/01/06 07:44:00;;;;;;;7.67;2.73;;;16.70;53.40;;;;;;6272671;22;20735;-61
2021/01/06 07:46:31;;;;;;;10.73;4.17;;;17.30;52.00;;;;;;6269354;22;20235;-60
2021/01/06 07:49:20;;;;;;;11.27;3.47;;;18.10;51.50;;;;;;6252716;22;20184;-59
2021/01/06 07:52:24;;;;;;;12.00;2.83;;;18.90;50.40;;;;;;6259267;22;20166;-60
2021/01/06 07:55:06;;;;;;;10.10;3.13;;;19.60;49.30;;;;;;6258281;22;20273;-60
2021/01/06 07:57:38;;;;;;;5.57;2.70;;;19.90;48.90;;;;;;6258781;22;20157;-59
2021/01/06 08:00:13;;;;;;;7.40;2.80;;;20.10;48.50;;;;;;6259869;22;20236;-59
2021/01/06 08:02:57;;;;;;;7.20;2.93;;;20.50;47.70;;;;;;6259219;22;20664;-60
2021/01/06 08:05:25;;;;;;;7.03;2.67;;;20.70;47.20;;;;;;6261543;22;20169;-59
2021/01/06 08:08:07;;;;;;;6.20;2.43;;;20.90;46.80;;;;;;6262663;22;20157;-60
2021/01/06 08:10:35;;;;;;;7.33;2.60;;;21.10;46.40;;;;;;6263043;22;20180;-60
2021/01/06 08:13:23;;;;;;;7.17;2.83;;;21.40;46.10;;;;;;6262022;22;20215;-60
2021/01/06 08:16:16;;;;;;;7.63;2.50;;;21.50;45.90;;;;;;6263131;22;20161;-58
2021/01/06 08:18:54;;;;;;;4.97;2.30;;;21.60;45.60;;;;;;6258310;22;20161;-60
2021/01/06 08:21:44;;;;;;;3.17;2.30;;;21.70;45.40;;;;;;6262328;22;20169;-60
2021/01/06 08:24:20;;;;;;;4.63;2.43;;;21.80;45.40;;;;;;6257504;22;20246;-60
2021/01/06 08:26:50;;;;;;;2.87;2.13;;;22.10;44.90;;;;;;6262915;22;20177;-58
2021/01/06 08:29:26;;;;;;;5.20;2.27;;;22.30;44.60;;;;;;6256756;22;20173;-58
2021/01/06 08:32:05;;;;;;;4.83;2.30;;;22.40;44.30;;;;;;6262956;22;20176;-59
2021/01/06 08:34:34;;;;;;;3.00;1.90;;;22.40;44.30;;;;;;6257683;22;20157;-60
2021/01/06 08:37:12;;;;;;;3.57;2.20;;;22.60;43.90;;;;;;6259408;22;20565;-60
2021/01/06 08:39:52;;;;;;;3.00;2.00;;;22.80;43.60;;;;;;6255530;22;20169;-56
2021/01/06 08:42:22;;;;;;;5.70;2.43;;;22.90;43.30;;;;;;6261177;22;20532;-57
2021/01/06 08:44:58;;;;;;;6.80;2.10;;;22.90;42.90;;;;;;6259723;22;20169;-60
2021/01/06 08:47:38;;;;;;;2.97;1.80;;;23.10;42.60;;;;;;6263128;22;20228;-59
2021/01/06 08:50:32;;;;;;;4.00;2.00;;;23.20;42.70;;;;;;6261106;22;20156;-57
2021/01/06 08:53:01;;;;;;;2.10;1.73;;;23.50;42.50;;;;;;6265355;22;20177;-58
2021/01/06 08:55:36;;;;;;;4.13;1.70;;;23.60;42.40;;;;;;6260887;22;20809;-59
2021/01/06 08:58:07;;;;;;;3.50;1.77;;;23.70;42.40;;;;;;6265138;22;20177;-57
2021/01/06 09:00:56;;;;;;;1.83;1.60;;;23.80;42.30;;;;;;6260011;22;20609;-60
2021/01/06 09:03:45;;;;;;;2.53;1.93;;;23.90;42.30;;;;;;6264345;22;20189;-59
2021/01/06 09:06:18;;;;;;;2.37;1.80;;;24.00;42.10;;;;;;6260728;22;20539;-57
2021/01/06 09:08:47;;;;;;;2.10;1.40;;;24.20;41.70;;;;;;6263917;22;20248;-58
2021/01/06 09:11:22;;;;;;;2.53;1.60;;;24.30;41.50;;;;;;6261671;22;20241;-57
2021/01/06 09:14:04;;;;;;;8.90;1.40;;;24.30;41.60;;;;;;6263921;22;20280;-57
2021/01/06 09:16:48;;;;;;;3.93;1.60;;;24.30;41.70;;;;;;6261225;22;20153;-58
2021/01/06 09:19:41;;;;;;;2.63;1.53;;;24.40;41.50;;;;;;6265851;22;20176;-58
2021/01/06 09:22:10;;;;;;;3.63;1.87;;;24.40;41.70;;;;;;6261069;22;20233;-58
2021/01/06 09:24:39;;;;;;;3.53;1.67;;;24.50;41.40;;;;;;6265591;22;20169;-55
2021/01/06 09:27:23;;;;;;;3.50;1.77;;;24.80;40.90;;;;;;6261499;22;20230;-60
2021/01/06 09:29:50;;;;;;;2.07;1.57;;;24.80;40.90;;;;;;6265002;22;20244;-59
2021/01/06 09:32:24;;;;;;;2.93;1.73;;;24.90;40.60;;;;;;6262186;22;20631;-60
2021/01/06 09:34:59;;;;;;;2.10;1.90;;;24.90;40.60;;;;;;6266098;22;20169;-59
2021/01/06 09:37:29;;;;;;;3.90;1.90;;;24.90;40.60;;;;;;6261222;22;20283;-62
2021/01/06 09:40:04;;;;;;;4.90;2.10;;;24.90;40.80;;;;;;6264218;22;20181;-60
2021/01/06 09:42:31;;;;;;;1.90;1.57;;;25.00;40.60;;;;;;6259894;22;20193;-60
2021/01/06 09:44:57;;;;;;;2.07;1.57;;;25.10;40.70;;;;;;6266137;22;20918;-61
2021/01/06 09:47:37;;;;;;;1.60;1.50;;;25.10;40.60;;;;;;6260572;22;20244;-61
2021/01/06 09:50:24;;;;;;;2.90;1.67;;;25.20;40.70;;;;;;6265240;22;20153;-62
2021/01/06 09:52:53;;;;;;;1.73;1.60;;;25.40;40.40;;;;;;6262707;22;20172;-60
2021/01/06 09:55:25;;;;;;;4.70;1.80;;;25.40;40.20;;;;;;6264420;22;20222;-61
2021/01/06 09:58:11;;;;;;;2.00;1.80;;;25.50;39.90;;;;;;6258957;22;20183;-62
2021/01/06 10:01:06;;;;;;;3.13;1.97;;;25.40;39.90;;;;;;6264270;22;20169;-62
2021/01/06 10:03:36;;;;;;;3.03;1.77;;;25.50;40.30;;;;;;6234173;22;20504;-62
2021/01/06 10:06:43;;;;;;;1.87;1.60;;;25.50;40.00;;;;;;6264990;22;20166;-59
2021/01/06 10:09:21;;;;;;;2.00;1.80;;;25.60;40.10;;;;;;6260949;22;20665;-59
2021/01/06 10:11:59;;;;;;;1.70;1.60;;;25.60;40.10;;;;;;6265624;22;20173;-64
2021/01/06 10:14:29;;;;;;;3.90;1.77;;;25.70;40.30;;;;;;6261024;22;20157;-64
2021/01/06 10:17:12;;;;;;;2.83;1.43;;;25.60;40.50;;;;;;6263994;22;20177;-59
2021/01/06 10:19:43;;;;;;;2.07;1.67;;;25.70;40.30;;;;;;6261137;22;20228;-58
2021/01/06 10:22:31;;;;;;;2.23;1.47;;;25.90;40.40;;;;;;6238184;22;20256;-59
2021/01/06 10:25:41;;;;;;;2.10;1.80;;;25.90;40.00;;;;;;6260580;22;20173;-59
2021/01/06 10:28:40;;;;;;;1.60;1.50;;;26.00;40.00;;;;;;6263532;22;20188;-60
2021/01/06 10:31:15;;;;;;;1.50;1.40;;;26.10;40.10;;;;;;6261929;22;20160;-60
2021/01/06 10:34:09;;;;;;;1.90;1.70;;;26.20;39.70;;;;;;6265001;22;20166;-57
2021/01/06 10:36:54;;;;;;;2.90;1.60;;;26.30;39.40;;;;;;6263713;22;20243;-57
2021/01/06 10:39:42;;;;;;;5.20;1.63;;;26.10;38.70;;;;;;6260863;22;20169;-61
2021/01/06 10:42:17;;;;;;;1.60;1.50;;;26.10;39.50;;;;;;6264481;22;20248;-61
2021/01/06 10:44:56;;;;;;;2.57;1.70;;;26.20;39.70;;;;;;6258491;22;20251;-61
2021/01/06 10:47:31;;;;;;;1.97;1.50;;;26.30;39.70;;;;;;6264354;22;20248;-61
2021/01/06 10:50:00;;;;;;;2.33;1.77;;;26.40;39.80;;;;;;6259781;22;20913;-61
2021/01/06 10:52:28;;;;;;;1.40;1.30;;;26.60;39.70;;;;;;6264228;22;20179;-61
2021/01/06 10:55:10;;;;;;;3.33;1.63;;;26.60;39.80;;;;;;6263493;22;20171;-60
2021/01/06 10:57:56;;;;;;;2.03;1.57;;;26.70;39.70;;;;;;6264277;22;20158;-60
2021/01/06 11:00:23;;;;;;;3.87;1.80;;;26.80;39.70;;;;;;6259117;22;20269;-59
2021/01/06 11:03:26;;;;;;;1.90;1.37;;;26.80;39.90;;;;;;6263533;22;20185;-60
2021/01/06 11:05:52;;;;;;;2.37;1.47;;;26.80;39.70;;;;;;6259783;22;20176;-61
2021/01/06 11:08:45;;;;;;;1.50;1.40;;;26.80;39.80;;;;;;6263703;22;20264;-60
2021/01/06 11:11:39;;;;;;;3.03;1.10;;;27.00;39.60;;;;;;6261489;22;20176;-61
2021/01/06 11:14:37;;;;;;;1.37;1.20;;;27.10;39.60;;;;;;6266791;22;20161;-59
2021/01/06 11:17:18;;;;;;;1.57;1.20;;;27.10;39.50;;;;;;6263039;22;20203;-60
2021/01/06 11:19:54;;;;;;;1.37;1.27;;;27.10;39.20;;;;;;6266952;22;20234;-58
2021/01/06 11:22:43;;;;;;;1.33;1.20;;;27.10;39.20;;;;;;6263043;22;20257;-58
2021/01/06 11:25:28;;;;;;;1.40;1.30;;;27.10;39.10;;;;;;6266263;22;20533;-60
2021/01/06 11:28:03;;;;;;;1.23;1.13;;;27.10;39.00;;;;;;6262710;22;20248;-60
2021/01/06 11:30:40;;;;;;;2.90;1.20;;;27.10;39.10;;;;;;6266429;22;20260;-58
2021/01/06 11:33:18;;;;;;;1.50;1.40;;;27.10;38.90;;;;;;6262982;22;20559;-60
2021/01/06 11:35:56;;;;;;;1.60;1.30;;;27.10;38.90;;;;;;6267048;22;20264;-60
2021/01/06 11:38:38;;;;;;;1.43;1.33;;;27.10;39.00;;;;;;6262685;22;20164;-60
2021/01/06 11:41:09;;;;;;;1.20;1.20;;;27.10;39.10;;;;;;6267083;22;20180;-60
2021/01/06 11:44:06;;;;;;;1.47;1.30;;;27.20;38.90;;;;;;6261634;22;20184;-57
2021/01/06 11:46:47;;;;;;;1.83;1.40;;;27.10;39.00;;;;;;6267582;22;20241;-63
2021/01/06 11:49:19;;;;;;;1.03;1.00;;;27.10;39.10;;;;;;6261652;22;20202;-56
2021/01/06 11:52:19;;;;;;;2.40;1.20;;;27.10;39.10;;;;;;6263077;22;20183;-61
2021/01/06 11:55:07;;;;;;;1.20;0.97;;;27.10;39.60;;;;;;6264005;22;20227;-59
2021/01/06 11:58:08;;;;;;;1.83;1.33;;;27.20;39.70;;;;;;6262842;22;20209;-60
2021/01/06 12:00:50;;;;;;;1.47;1.30;;;27.40;39.60;;;;;;6265249;22;20177;-60
2021/01/06 12:03:43;;;;;;;1.93;1.00;;;27.40;39.70;;;;;;6262270;22;20189;-59
2021/01/06 12:06:41;;;;;;;15.33;1.40;;;27.40;39.70;;;;;;6275970;22;20150;-59
2021/01/06 12:09:36;;;;;;;0.90;0.90;;;27.50;39.60;;;;;;6262653;22;20177;-59
2021/01/06 12:12:40;;;;;;;1.30;1.10;;;27.60;39.50;;;;;;6266696;22;20238;-60
2021/01/06 12:15:23;;;;;;;1.23;1.13;;;27.70;39.50;;;;;;6260651;22;20176;-60
2021/01/06 12:17:53;;;;;;;2.20;1.10;;;27.80;39.40;;;;;;6266090;22;20539;-61
2021/01/06 12:20:21;;;;;;;1.40;0.90;;;27.90;39.30;;;;;;6262347;22;20248;-61
2021/01/06 12:23:15;;;;;;;1.10;1.10;;;27.90;39.30;;;;;;6265723;22;20191;-61
2021/01/06 12:25:57;;;;;;;1.13;1.07;;;27.90;39.40;;;;;;6262316;22;20176;-61
2021/01/06 12:29:02;;;;;;;1.13;1.03;;;27.80;39.40;;;;;;6265860;22;20348;-63
2021/01/06 12:31:47;;;;;;;1.20;1.00;;;27.90;39.30;;;;;;6265673;22;20253;-62
2021/01/06 12:34:23;;;;;;;4.73;1.17;;;28.00;39.40;;;;;;6262438;22;20180;-63
2021/01/06 12:37:11;;;;;;;2.37;1.00;;;28.00;39.50;;;;;;6265025;22;20207;-62
2021/01/06 12:39:45;;;;;;;0.87;0.87;;;28.10;39.30;;;;;;6262709;22;20260;-61
2021/01/06 12:42:14;;;;;;;1.77;1.40;;;28.20;39.10;;;;;;6265997;22;20563;-59
2021/01/06 12:44:51;;;;;;;2.23;0.90;;;28.20;38.90;;;;;;6261007;22;20288;-60
2021/01/06 12:47:26;;;;;;;1.10;1.00;;;28.20;39.00;;;;;;6265495;22;20166;-59
2021/01/06 12:50:20;;;;;;;1.30;1.20;;;28.20;38.90;;;;;;6261375;22;20169;-55
2021/01/06 12:52:54;;;;;;;5.17;1.20;;;27.40;37.90;;;;;;6265169;22;20211;-59
2021/01/06 12:56:04;;;;;;;0.90;0.90;;;27.40;39.40;;;;;;6261399;22;20157;-59
2021/01/06 12:59:00;;;;;;;1.47;1.03;;;27.80;39.10;;;;;;6266013;22;20605;-60
2021/01/06 13:01:44;;;;;;;1.57;1.03;;;27.90;38.90;;;;;;6260732;22;20157;-59
2021/01/06 13:04:13;;;;;;;3.70;1.10;;;28.00;39.00;;;;;;6276006;22;20252;-60
2021/01/06 13:06:46;;;;;;;1.07;0.90;;;28.10;38.90;;;;;;6234052;22;20491;-59
2021/01/06 13:09:13;;;;;;;3.37;1.10;;;28.10;39.10;;;;;;6263705;22;20173;-59
2021/01/06 13:11:39;;;;;;;2.30;0.90;;;28.20;38.80;;;;;;6261109;22;20170;-59
2021/01/06 13:14:35;;;;;;;1.20;1.00;;;28.20;39.10;;;;;;6265472;22;20173;-59
2021/01/06 13:17:04;;;;;;;1.23;1.03;;;28.20;39.10;;;;;;6261579;22;20248;-59
2021/01/06 13:19:37;;;;;;;1.00;0.93;;;28.30;39.20;;;;;;6265056;22;20174;-60
2021/01/06 13:22:30;;;;;;;1.53;1.20;;;28.30;39.10;;;;;;6260275;22;20165;-59
2021/01/06 13:25:10;;;;;;;1.57;1.10;;;28.40;39.10;;;;;;6264468;22;20257;-59
2021/01/06 13:27:46;;;;;;;3.57;1.30;;;27.80;40.60;;;;;;6260582;22;20153;-60
2021/01/06 13:30:25;;;;;;;4.50;1.20;;;27.30;40.70;;;;;;6264701;22;20233;-59
2021/01/06 13:33:13;;;;;;;2.70;1.20;;;26.90;41.80;;;;;;6260139;22;20154;-59
2021/01/06 13:36:02;;;;;;;1.10;1.00;;;26.60;41.70;;;;;;6264126;22;20197;-59
2021/01/06 13:38:35;;;;;;;0.90;0.70;;;26.40;42.10;;;;;;6259751;22;20256;-59
2021/01/06 13:41:21;;;;;;;3.27;1.10;;;26.20;42.10;;;;;;6263904;22;20625;-59
2021/01/06 13:44:00;;;;;;;2.07;0.90;;;26.00;42.20;;;;;;6257458;22;20645;-59
2021/01/06 13:46:53;;;;;;;1.20;1.10;;;25.90;42.30;;;;;;6263215;22;20244;-55
2021/01/06 13:49:35;;;;;;;2.57;1.30;;;25.70;42.50;;;;;;6256360;22;20169;-56
2021/01/06 13:52:21;;;;;;;1.80;1.20;;;25.50;42.30;;;;;;6262469;22;20169;-55
2021/01/06 13:55:00;;;;;;;1.53;1.30;;;25.30;42.80;;;;;;6260259;22;20177;-54
2021/01/06 13:57:47;;;;;;;3.10;1.40;;;25.20;43.80;;;;;;6262370;22;20252;-54
2021/01/06 14:00:44;;;;;;;1.60;1.37;;;25.00;43.50;;;;;;6262149;22;20170;-58
2021/01/06 14:03:30;;;;;;;1.73;1.40;;;24.40;43.70;;;;;;6258995;22;20283;-58
2021/01/06 14:06:08;;;;;;;2.40;1.67;;;23.90;44.50;;;;;;6262383;22;20184;-58
2021/01/06 14:08:53;;;;;;;2.47;1.30;;;23.60;45.00;;;;;;6259380;22;20225;-58
2021/01/06 14:11:46;;;;;;;5.20;2.67;;;23.40;45.70;;;;;;6259475;22;20445;-58
2021/01/06 14:14:38;;;;;;;2.23;1.40;;;23.50;47.60;;;;;;6257815;22;20324;-59
2021/01/06 14:17:13;;;;;;;1.50;1.40;;;23.90;46.50;;;;;;6263037;22;20161;-58